createdAt,value
2019-05-21T00:03:41.999Z,99451.97
2019-05-21T00:08:48.067Z,99460.56
2019-05-21T00:13:53.940Z,99466.20
2019-05-21T00:18:59.810Z,99453.27
2019-05-21T00:24:05.781Z,99438.47
2019-05-21T00:30:06.222Z,99441.05
2019-05-21T00:36:06.856Z,99434.63
2019-05-21T00:42:01.505Z,99436.20
2019-05-21T00:47:10.440Z,99435.34
2019-05-21T00:52:16.609Z,99436.25
2019-05-21T00:57:22.628Z,99440.35
2019-05-21T01:02:29.677Z,99448.88
2019-05-21T01:07:35.650Z,99441.14
2019-05-21T01:12:41.619Z,99435.64
2019-05-21T01:17:49.153Z,99450.06
2019-05-21T01:22:55.098Z,99446.18
2019-05-21T01:28:01.069Z,99442.07
2019-05-21T01:33:07.041Z,99447.70
2019-05-21T01:38:13.215Z,99444.62
2019-05-21T01:43:20.109Z,99449.12
2019-05-21T01:48:26.082Z,99454.52
2019-05-21T01:53:32.049Z,99466.67
2019-05-21T01:58:38.022Z,99476.11
2019-05-21T02:03:44.193Z,99472.96
2019-05-21T02:08:50.266Z,99480.22
2019-05-21T02:13:56.232Z,99490.34
2019-05-21T02:19:02.196Z,99493.05
2019-05-21T02:24:08.419Z,99498.37
2019-05-21T02:29:14.452Z,99498.67
2019-05-21T02:34:20.428Z,99504.30
2019-05-21T02:39:26.310Z,99502.64
2019-05-21T02:44:32.267Z,99483.30
2019-05-21T02:49:38.238Z,99492.66
2019-05-21T02:54:45.233Z,99492.89
2019-05-21T02:59:52.842Z,99501.61
2019-05-21T03:04:58.812Z,99510.59
2019-05-21T03:10:05.504Z,99516.06
2019-05-21T03:15:11.881Z,99512.98
2019-05-21T03:20:17.954Z,99519.52
2019-05-21T03:25:24.029Z,99525.60
2019-05-21T03:30:30.112Z,99508.64
2019-05-21T03:35:36.176Z,99509.33
2019-05-21T03:40:43.069Z,99514.80
2019-05-21T03:45:49.034Z,99517.20
2019-05-21T03:50:55.416Z,99520.93
2019-05-21T03:56:01.398Z,99519.90
2019-05-21T04:01:07.408Z,99521.48
2019-05-21T04:06:13.342Z,99527.55
2019-05-21T04:11:19.406Z,99516.44
2019-05-21T04:16:40.226Z,99514.69
2019-05-21T04:21:46.398Z,99513.39
2019-05-21T04:26:52.471Z,99529.46
2019-05-21T04:31:58.466Z,99522.39
2019-05-21T04:37:11.009Z,99518.14
2019-05-21T04:42:12.841Z,99520.47
2019-05-21T04:47:19.253Z,99514.75
2019-05-21T04:52:26.506Z,99521.00
2019-05-21T04:57:32.619Z,99521.45
2019-05-21T05:02:41.521Z,99539.25
2019-05-21T05:07:46.775Z,99536.18
2019-05-21T05:12:52.782Z,99534.02
2019-05-21T05:17:58.828Z,99539.09
2019-05-21T05:23:04.913Z,99546.72
2019-05-21T05:28:11.623Z,99544.43
2019-05-21T05:33:17.732Z,99551.86
2019-05-21T05:38:23.851Z,99551.95
2019-05-21T05:43:30.326Z,99557.33
2019-05-21T05:48:37.951Z,99543.80
2019-05-21T05:53:59.382Z,99551.97
2019-05-21T05:59:05.992Z,99554.67
2019-05-21T06:04:12.028Z,99544.33
2019-05-21T06:09:18.045Z,99549.03
2019-05-21T06:14:24.119Z,99558.17
2019-05-21T06:19:30.385Z,99565.61
2019-05-21T06:24:36.709Z,99557.37
2019-05-21T06:29:43.248Z,99562.98
2019-05-21T06:34:49.488Z,99550.81
2019-05-21T06:39:55.575Z,99549.06
2019-05-21T06:45:01.849Z,99557.52
2019-05-21T06:50:08.691Z,99560.56
2019-05-21T06:55:14.834Z,99537.05
2019-05-21T07:00:21.686Z,99557.91
2019-05-21T07:05:28.125Z,99569.45
2019-05-21T07:10:34.773Z,99564.52
2019-05-21T07:15:40.840Z,99578.97
2019-05-21T07:20:47.019Z,99568.02
2019-05-21T07:25:53.128Z,99562.79
2019-05-21T07:30:59.097Z,99572.49
2019-05-21T07:36:05.594Z,99568.95
2019-05-21T07:41:11.626Z,99574.34
2019-05-21T07:46:17.768Z,99564.36
2019-05-21T07:51:23.815Z,99562.45
2019-05-21T07:56:29.944Z,99551.47
2019-05-21T08:01:36.916Z,99552.86
2019-05-21T08:06:43.088Z,99553.33
2019-05-21T08:11:49.835Z,99545.81
2019-05-21T08:16:56.076Z,99552.70
2019-05-21T08:22:02.559Z,99556.28
2019-05-21T08:27:08.835Z,99553.17
2019-05-21T08:32:14.911Z,99547.16
2019-05-21T08:37:20.983Z,99545.21
2019-05-21T08:42:27.891Z,99552.54
2019-05-21T08:47:34.187Z,99556.28
2019-05-21T08:52:40.366Z,99558.49
2019-05-21T08:58:03.761Z,99554.46
2019-05-21T09:02:54.695Z,99554.98
2019-05-21T09:08:00.797Z,99559.60
2019-05-21T09:13:07.089Z,99554.84
2019-05-21T09:18:13.111Z,99548.87
2019-05-21T09:23:19.529Z,99556.00
2019-05-21T09:28:25.529Z,99547.56
2019-05-21T09:33:32.090Z,99546.00
2019-05-21T09:38:38.021Z,99546.78
2019-05-21T09:43:44.037Z,99544.30
2019-05-21T09:48:50.205Z,99535.06
2019-05-21T09:53:56.280Z,99535.33
2019-05-21T09:59:23.235Z,99523.69
2019-05-21T10:04:29.464Z,99520.77
2019-05-21T10:09:36.038Z,99521.03
2019-05-21T10:14:42.177Z,99522.80
2019-05-21T10:19:48.507Z,99523.23
2019-05-21T10:24:54.545Z,99520.24
2019-05-21T10:30:00.705Z,99515.31
2019-05-21T10:35:07.654Z,99515.61
2019-05-21T10:40:14.911Z,99512.84
2019-05-21T10:45:21.491Z,99511.22
2019-05-21T10:50:27.967Z,99518.88
2019-05-21T10:55:34.197Z,99517.50
2019-05-21T11:00:40.728Z,99518.30
2019-05-21T11:05:51.416Z,99516.48
2019-05-21T11:10:57.588Z,99506.86
2019-05-21T11:16:05.095Z,99517.98
2019-05-21T11:21:11.205Z,99516.45
2019-05-21T11:26:17.467Z,99503.77
2019-05-21T11:31:24.146Z,99513.37
2019-05-21T11:36:30.302Z,99512.04
2019-05-21T11:41:36.705Z,99501.09
2019-05-21T11:46:42.753Z,99502.16
2019-05-21T11:51:48.932Z,99505.73
2019-05-21T11:56:55.110Z,99501.89
2019-05-21T12:02:01.257Z,99502.47
2019-05-21T12:07:07.363Z,99501.11
2019-05-21T12:12:13.939Z,99504.37
2019-05-21T12:17:20.353Z,99500.31
2019-05-21T12:22:26.449Z,99485.30
2019-05-21T12:27:32.531Z,99473.77
2019-05-21T12:32:39.406Z,99473.75
2019-05-21T12:37:45.441Z,99471.84
2019-05-21T12:42:51.958Z,99474.78
2019-05-21T12:47:58.352Z,99476.05
2019-05-21T12:53:04.421Z,99479.66
2019-05-21T12:58:10.655Z,99477.22
2019-05-21T13:03:17.036Z,99472.30
2019-05-21T13:08:23.506Z,99461.38
2019-05-21T13:13:29.994Z,99452.95
2019-05-21T13:18:36.536Z,99463.31
2019-05-21T13:23:42.793Z,99459.03
2019-05-21T13:28:49.156Z,99449.98
2019-05-21T13:33:56.046Z,99437.50
2019-05-21T13:39:02.667Z,99436.75
2019-05-21T13:44:09.815Z,99437.12
2019-05-21T13:49:16.663Z,99443.16
2019-05-21T13:54:23.163Z,99441.45
2019-05-21T13:59:29.680Z,99429.23
2019-05-21T14:04:36.671Z,99430.07
2019-05-21T14:09:42.861Z,99424.54
2019-05-21T14:14:49.447Z,99414.75
2019-05-21T14:19:55.553Z,99414.01
2019-05-21T14:25:01.804Z,99414.36
2019-05-21T14:30:11.870Z,99407.84
2019-05-21T14:35:18.226Z,99406.27
2019-05-21T14:40:31.611Z,99392.80
2019-05-21T14:45:34.586Z,99407.37
2019-05-21T14:50:40.958Z,99395.92
2019-05-21T14:55:47.225Z,99405.52
2019-05-21T15:00:53.463Z,99407.56
2019-05-21T15:05:59.481Z,99415.34
2019-05-21T15:11:05.650Z,99417.03
2019-05-21T15:16:12.644Z,99418.73
2019-05-21T15:21:20.364Z,99417.64
2019-05-21T15:26:26.946Z,99442.96
2019-05-21T15:31:33.361Z,99413.47
2019-05-21T15:36:40.429Z,99399.94
2019-05-21T15:41:46.557Z,99395.34
2019-05-21T15:46:53.083Z,99397.03
2019-05-21T15:51:59.435Z,99408.61
2019-05-21T15:57:05.289Z,99423.85
2019-05-21T16:02:11.418Z,99437.95
2019-05-21T16:07:17.505Z,99435.13
2019-05-21T16:12:23.499Z,99448.45
2019-05-21T16:17:29.947Z,99440.80
2019-05-21T16:22:36.100Z,99443.22
2019-05-21T16:27:42.349Z,99428.56
2019-05-21T16:32:48.731Z,99430.77
2019-05-21T16:37:55.353Z,99432.08
2019-05-21T16:43:01.425Z,99434.03
2019-05-21T16:48:08.096Z,99433.77
2019-05-21T16:53:14.553Z,99437.89
2019-05-21T16:58:20.617Z,99432.39
2019-05-21T17:03:26.637Z,99430.39
2019-05-21T17:08:32.763Z,99423.09
2019-05-21T17:13:38.690Z,99410.50
2019-05-21T17:18:45.268Z,99422.20
2019-05-21T17:23:51.344Z,99431.06
2019-05-21T17:28:57.419Z,99432.88
2019-05-21T17:34:03.482Z,99460.08
2019-05-21T17:39:09.995Z,99446.64
2019-05-21T17:44:16.031Z,99440.05
2019-05-21T17:49:22.109Z,99419.20
2019-05-21T17:54:28.103Z,99395.23
2019-05-21T17:59:34.297Z,99394.97
2019-05-21T18:04:41.454Z,99396.69
2019-05-21T18:09:47.955Z,99407.26
2019-05-21T18:14:54.249Z,99394.88
2019-05-21T18:20:02.144Z,99404.66
2019-05-21T18:25:10.490Z,99413.80
2019-05-21T18:30:18.073Z,99426.53
2019-05-21T18:35:24.966Z,99430.59
2019-05-21T18:40:31.036Z,99435.00
2019-05-21T18:45:37.311Z,99447.46
2019-05-21T18:50:43.614Z,99441.31
2019-05-21T18:55:49.862Z,99436.39
2019-05-21T19:00:56.051Z,99436.91
2019-05-21T19:06:02.216Z,99438.58
2019-05-21T19:11:08.604Z,99439.56
2019-05-21T19:16:14.773Z,99430.92
2019-05-21T19:21:21.052Z,99432.69
2019-05-21T19:26:27.229Z,99439.16
2019-05-21T19:31:33.512Z,99442.66
2019-05-21T19:36:39.513Z,99445.19
2019-05-21T19:41:45.452Z,99444.55
2019-05-21T19:46:51.415Z,99443.32
2019-05-21T19:51:57.600Z,99439.03
2019-05-21T19:57:03.769Z,99440.30
2019-05-21T20:02:10.402Z,99438.26
2019-05-21T20:07:17.882Z,99447.59
2019-05-21T20:12:25.161Z,99444.87
2019-05-21T20:17:33.176Z,99448.23
2019-05-21T20:22:41.406Z,99445.15
2019-05-21T20:27:48.297Z,99437.70
2019-05-21T20:32:54.601Z,99438.97
2019-05-21T20:38:01.977Z,99430.30
2019-05-21T20:43:08.211Z,99433.60
2019-05-21T20:48:15.089Z,99423.72
2019-05-21T20:53:22.042Z,99421.26
2019-05-21T20:58:28.728Z,99425.85
2019-05-21T21:03:36.133Z,99427.78
2019-05-21T21:08:42.102Z,99420.30
2019-05-21T21:13:49.614Z,99426.91
2019-05-21T21:18:55.575Z,99436.13
2019-05-21T21:24:02.712Z,99440.41
2019-05-21T21:29:09.674Z,99431.48
2019-05-21T21:34:17.087Z,99421.02
2019-05-21T21:39:23.143Z,99421.98
2019-05-21T21:44:34.214Z,99414.15
2019-05-21T21:49:36.502Z,99421.81
2019-05-21T21:54:43.826Z,99415.97
2019-05-21T21:59:50.100Z,99412.51
2019-05-21T22:04:57.869Z,99403.43
2019-05-21T22:10:07.059Z,99396.91
2019-05-21T22:15:13.433Z,99403.43
2019-05-21T22:20:19.410Z,99419.41
2019-05-21T22:25:25.385Z,99422.71
2019-05-21T22:30:31.865Z,99419.94
2019-05-21T22:35:39.175Z,99429.53
2019-05-21T22:40:45.344Z,99427.36
2019-05-21T22:45:51.836Z,99434.81
2019-05-21T22:50:57.794Z,99431.34
2019-05-21T22:56:03.771Z,99430.45
2019-05-21T23:01:11.688Z,99418.81
2019-05-21T23:06:16.932Z,99415.05
2019-05-21T23:11:23.326Z,99422.41
2019-05-21T23:16:31.439Z,99423.98
2019-05-21T23:21:49.904Z,99421.34
2019-05-21T23:26:56.392Z,99410.95
2019-05-21T23:32:02.872Z,99421.52
2019-05-21T23:37:10.694Z,99418.28
2019-05-21T23:42:28.673Z,99425.70
2019-05-21T23:47:23.754Z,99430.65
2019-05-21T23:52:31.670Z,99420.27
2019-05-21T23:57:37.411Z,99421.03
